KCPR/CPR METAR and TAF weather

Enter ICAO airport designator
Station Type Date Time Source
KCPR METAR 2021/09/27 05:53 UTC NOAA

KCPR 270553Z AUTO 00000KT 10SM CLR 12/M05 A3000 RMK AO2 SLP099 T01221050 10278 20111 51005


Station Type Date Time Source
KCPR Decoded METAR 2021/09/27 05:53 UTC NOAA

NATRONA COUNTY INTERNATIONAL AIRPORT , WY, United States (KCPR) 42-54N 106-28W 1621M
Sep 27, 2021 - 01:53 AM EDT / 2021.09.27 0553 UTC
Wind: Calm:0
Visibility: 10 mile(s):0
Sky conditions: clear
Temperature: 54.0 F (12.2 C)
Dew Point: 23.0 F (-5.0 C)
Relative Humidity: 29%
Pressure (altimeter): 30 in. Hg (1015 hPa)
Pressure tendency: 0.01 inches (0.5 hPa) higher than three hours ago
ob: KCPR 270553Z AUTO 00000KT 10SM CLR 12/M05 A3000 RMK AO2 SLP099 T01221050 10278 20111 51005
cycle: 6

Station Type Date Time Source
KCPR TAF 2021/09/27 06:27 UTC NOAA

TAF KCPR 270524Z 2706/2806 23008KT P6SM SKC
FM271600 24012G20KT P6SM SKC
FM272100 23008KT P6SM SKC
FM280200 VRB06KT P6SM FEW200

Example: see airport list